Time;durP1;ratioP1;P1;durP2;ratioP2;P2;SDS_P1;SDS_P2;PMS_P1;PMS_P2;Temp;Humidity;BMP_temperature;BMP_pressure;BME280_temperature;BME280_humidity;BME280_pressure;Samples;Min_cycle;Max_cycle;Signal;HPM_P1;HPM_P2
2023/04/20 00:00:41;;;;;;;7.32;3.55;;;;;;;-144.87;100.00;61487.56;4913222;29;20044;-80
2023/04/20 00:03:08;;;;;;;8.13;3.70;;;;;;;-144.87;100.00;61487.56;4935898;28;20548;-80
2023/04/20 00:05:34;;;;;;;6.47;3.53;;;;;;;-144.87;100.00;61487.56;4950933;28;20046;-81
2023/04/20 00:08:00;;;;;;;6.15;3.78;;;;;;;-144.87;100.00;61487.56;4939841;29;20047;-81
2023/04/20 00:10:27;;;;;;;6.30;4.03;;;;;;;-144.87;100.00;61487.56;4895650;28;20031;-81
2023/04/20 00:12:53;;;;;;;10.27;3.78;;;;;;;-144.87;100.00;61487.56;4934386;29;20035;-81
2023/04/20 00:15:19;;;;;;;7.70;4.50;;;;;;;-144.87;100.00;61487.56;4943488;28;20394;-81
2023/04/20 00:17:47;;;;;;;12.73;4.60;;;;;;;-144.87;100.00;61487.56;4948802;28;20043;-80
2023/04/20 00:20:14;;;;;;;8.02;4.13;;;;;;;-144.87;100.00;61487.56;4922691;29;20413;-81
2023/04/20 00:22:40;;;;;;;7.47;4.40;;;;;;;-144.87;100.00;61487.56;4916873;29;20444;-81
2023/04/20 00:25:07;;;;;;;9.75;4.15;;;;;;;-144.87;100.00;61487.56;4933632;28;21888;-80
2023/04/20 00:27:33;;;;;;;8.23;3.88;;;;;;;-144.87;100.00;61487.56;4921784;28;20408;-81
2023/04/20 00:29:59;;;;;;;9.82;4.00;;;;;;;-144.87;100.00;61487.56;4919723;28;20586;-81
2023/04/20 00:32:27;;;;;;;5.72;3.92;;;;;;;-144.87;100.00;61487.56;4915171;28;20039;-81
2023/04/20 00:34:53;;;;;;;11.93;4.60;;;;;;;-144.87;100.00;61487.56;4947315;28;20082;-81
2023/04/20 00:37:20;;;;;;;8.98;3.97;;;;;;;-144.87;100.00;61487.56;4938063;28;20411;-81
2023/04/20 00:39:46;;;;;;;12.52;5.20;;;;;;;-144.87;100.00;61487.56;4906417;28;20054;-81
2023/04/20 00:42:12;;;;;;;10.23;3.70;;;;;;;-144.87;100.00;61487.56;4911807;29;20094;-81
2023/04/20 00:44:38;;;;;;;8.75;3.65;;;;;;;-144.87;100.00;61487.56;4920494;29;20043;-80
2023/04/20 00:47:05;;;;;;;6.45;3.22;;;;;;;-144.87;100.00;61487.56;4936012;28;20383;-82
2023/04/20 00:49:32;;;;;;;7.68;3.50;;;;;;;-144.87;100.00;61487.56;4931863;29;20046;-80
2023/04/20 00:51:59;;;;;;;12.30;3.83;;;;;;;-144.87;100.00;61487.56;4936974;28;20071;-81
2023/04/20 00:54:30;;;;;;;8.13;4.20;;;;;;;-144.87;100.00;61487.56;4917680;29;20028;-80
2023/04/20 00:56:56;;;;;;;8.48;3.67;;;;;;;-144.87;100.00;61487.56;4914427;29;20094;-81
2023/04/20 00:59:23;;;;;;;8.27;3.83;;;;;;;-144.87;100.00;61487.56;4917668;28;20030;-82
2023/04/20 01:01:50;;;;;;;9.23;4.30;;;;;;;-144.87;100.00;61487.56;4939156;28;20047;-82
2023/04/20 01:04:16;;;;;;;7.05;3.83;;;;;;;-144.87;100.00;61487.56;4933069;29;20071;-82
2023/04/20 01:06:43;;;;;;;10.52;3.15;;;;;;;-144.87;100.00;61487.56;4942199;28;20089;-82
2023/04/20 01:09:09;;;;;;;8.40;3.92;;;;;;;-144.87;100.00;61487.56;4939398;28;20032;-83
2023/04/20 01:11:36;;;;;;;9.18;3.95;;;;;;;-144.87;100.00;61487.56;4934418;29;20050;-82
2023/04/20 01:14:02;;;;;;;10.43;4.90;;;;;;;-144.87;100.00;61487.56;4935800;29;20404;-81
2023/04/20 01:16:30;;;;;;;14.30;3.90;;;;;;;-144.87;100.00;61487.56;4930238;29;20386;-81
2023/04/20 01:18:57;;;;;;;9.25;3.83;;;;;;;-144.87;100.00;61487.56;4915913;28;20422;-82
2023/04/20 01:21:23;;;;;;;8.05;3.97;;;;;;;-144.87;100.00;61487.56;4952037;28;20037;-81
2023/04/20 01:23:51;;;;;;;11.20;4.38;;;;;;;-144.87;100.00;61487.56;4918763;28;20087;-82
2023/04/20 01:26:19;;;;;;;12.15;3.72;;;;;;;-144.87;100.00;61487.56;4932642;28;20134;-82
2023/04/20 01:28:45;;;;;;;8.25;3.90;;;;;;;-144.87;100.00;61487.56;4902346;29;20039;-82
2023/04/20 01:31:15;;;;;;;7.45;3.80;;;;;;;-144.87;100.00;61487.56;4917702;29;20047;-81
2023/04/20 01:33:41;;;;;;;7.40;3.20;;;;;;;-144.87;100.00;61487.56;4934072;28;20050;-80
2023/04/20 01:36:08;;;;;;;6.03;3.85;;;;;;;-144.87;100.00;61487.56;4940416;28;20035;-81
2023/04/20 01:38:35;;;;;;;8.82;4.10;;;;;;;-144.87;100.00;61487.56;4896314;28;20512;-81
2023/04/20 01:41:03;;;;;;;7.97;3.72;;;;;;;-144.87;100.00;61487.56;4946923;28;20455;-81
2023/04/20 01:43:30;;;;;;;9.15;4.47;;;;;;;-144.87;100.00;61487.56;4944366;29;20039;-83
2023/04/20 01:45:56;;;;;;;8.07;4.15;;;;;;;-144.87;100.00;61487.56;4916223;28;20457;-81
2023/04/20 01:48:22;;;;;;;8.35;4.43;;;;;;;-144.87;100.00;61487.56;4939657;28;20044;-81
2023/04/20 01:50:52;;;;;;;7.60;4.07;;;;;;;-144.87;100.00;61487.56;4920025;29;20039;-81
2023/04/20 01:53:19;;;;;;;10.10;4.07;;;;;;;-144.87;100.00;61487.56;4906294;29;20054;-80
2023/04/20 01:55:47;;;;;;;7.50;3.72;;;;;;;-144.87;100.00;61487.56;4939257;28;20075;-81
2023/04/20 01:58:13;;;;;;;6.20;4.32;;;;;;;-144.87;100.00;61487.56;4937297;28;20105;-81
2023/04/20 02:00:40;;;;;;;6.68;4.10;;;;;;;-144.87;100.00;61487.56;4937660;28;20039;-80
2023/04/20 02:03:06;;;;;;;7.97;4.05;;;;;;;-144.87;100.00;61487.56;4918990;28;20182;-81
2023/04/20 02:05:33;;;;;;;7.18;4.50;;;;;;;-144.87;100.00;61487.56;4916577;28;20408;-81
2023/04/20 02:07:59;;;;;;;8.57;4.03;;;;;;;-144.87;100.00;61487.56;4953397;28;20118;-82
2023/04/20 02:10:25;;;;;;;8.13;4.25;;;;;;;-144.87;100.00;61487.56;4930882;28;20035;-80
2023/04/20 02:12:51;;;;;;;8.30;4.95;;;;;;;-144.87;100.00;61487.56;4918128;29;20071;-80
2023/04/20 02:15:18;;;;;;;10.90;4.28;;;;;;;-144.87;100.00;61487.56;4949976;28;20449;-81
2023/04/20 02:17:44;;;;;;;9.80;4.50;;;;;;;-144.87;100.00;61487.56;4916657;29;20065;-81
2023/04/20 02:20:11;;;;;;;9.85;4.18;;;;;;;-144.87;100.00;61487.56;4915246;29;20032;-83
2023/04/20 02:22:38;;;;;;;11.25;4.85;;;;;;;-144.87;100.00;61487.56;4919738;29;20166;-82
2023/04/20 02:25:05;;;;;;;14.38;4.63;;;;;;;-144.87;100.00;61487.56;4916032;28;20031;-82
2023/04/20 02:27:32;;;;;;;9.35;4.80;;;;;;;-144.87;100.00;61487.56;4941616;28;20058;-80
2023/04/20 02:29:59;;;;;;;7.10;4.45;;;;;;;-144.87;100.00;61487.56;4931357;28;20458;-80
2023/04/20 02:32:25;;;;;;;8.10;4.97;;;;;;;-144.87;100.00;61487.56;4935122;29;20047;-80
2023/04/20 02:34:52;;;;;;;9.23;4.82;;;;;;;-144.87;100.00;61487.56;4929954;28;20086;-82
2023/04/20 02:37:18;;;;;;;7.38;4.78;;;;;;;-144.87;100.00;61487.56;4942617;28;20040;-82
2023/04/20 02:39:44;;;;;;;9.00;4.95;;;;;;;-144.87;100.00;61487.56;4929485;29;20126;-82
2023/04/20 02:42:11;;;;;;;6.85;4.43;;;;;;;-144.87;100.00;61487.56;4921024;29;20040;-81
2023/04/20 02:44:37;;;;;;;7.93;4.45;;;;;;;-144.87;100.00;61487.56;4915647;28;20043;-82
2023/04/20 02:47:05;;;;;;;12.85;4.60;;;;;;;-144.87;100.00;61487.56;4930765;29;20039;-87
2023/04/20 02:49:31;;;;;;;8.25;4.68;;;;;;;-144.87;100.00;61487.56;4947752;28;20087;-81
2023/04/20 02:51:57;;;;;;;7.28;4.30;;;;;;;-144.87;100.00;61487.56;4922059;28;20057;-81
2023/04/20 02:54:24;;;;;;;8.45;4.00;;;;;;;-144.87;100.00;61487.56;4929664;28;20043;-81
2023/04/20 02:56:50;;;;;;;10.65;4.10;;;;;;;-144.87;100.00;61487.56;4936043;28;20058;-81
2023/04/20 02:59:17;;;;;;;12.98;4.65;;;;;;;-144.87;100.00;61487.56;4912722;29;20436;-81
2023/04/20 03:02:04;;;;;;;5.95;4.07;;;;;;;-144.87;100.00;61487.56;4917849;29;20042;-86
2023/04/20 03:04:30;;;;;;;9.45;4.22;;;;;;;-144.87;100.00;61487.56;4908923;28;20113;-81
2023/04/20 03:07:08;;;;;;;7.28;4.05;;;;;;;-144.87;100.00;61487.56;4918943;29;20039;-82
2023/04/20 03:09:36;;;;;;;12.60;4.28;;;;;;;-144.87;100.00;61487.56;4919563;28;20118;-81
2023/04/20 03:12:21;;;;;;;12.40;4.10;;;;;;;-144.87;100.00;61487.56;4934839;28;20046;-81
2023/04/20 03:15:08;;;;;;;8.18;3.90;;;;;;;-144.87;100.00;61487.56;4916666;28;20027;-82
2023/04/20 03:17:54;;;;;;;7.28;3.92;;;;;;;-144.87;100.00;61487.56;4934544;29;20043;-82
2023/04/20 03:20:26;;;;;;;10.43;4.13;;;;;;;-144.87;100.00;61487.56;4930795;28;20618;-81
2023/04/20 03:22:52;;;;;;;8.13;4.18;;;;;;;-144.87;100.00;61487.56;4937549;28;20035;-82
2023/04/20 03:25:22;;;;;;;6.72;4.00;;;;;;;-144.87;100.00;61487.56;4900018;28;20035;-82
2023/04/20 03:27:54;;;;;;;10.52;3.78;;;;;;;-144.87;100.00;61487.56;4902385;28;20358;-81
2023/04/20 03:30:21;;;;;;;8.68;4.05;;;;;;;-144.87;100.00;61487.56;4934526;28;20034;-80
2023/04/20 03:32:53;;;;;;;6.32;3.92;;;;;;;-144.87;100.00;61487.56;4934700;29;20409;-80
2023/04/20 03:35:19;;;;;;;13.15;4.07;;;;;;;-144.87;100.00;61487.56;4920902;29;20051;-81
2023/04/20 03:37:46;;;;;;;10.48;3.92;;;;;;;-144.87;100.00;61487.56;4931876;28;20039;-81
2023/04/20 03:40:15;;;;;;;8.30;3.60;;;;;;;-144.87;100.00;61487.56;4923481;28;20035;-82
2023/04/20 03:42:41;;;;;;;11.50;3.50;;;;;;;-144.87;100.00;61487.56;4934253;28;20043;-81
2023/04/20 03:45:08;;;;;;;8.52;3.78;;;;;;;-144.87;100.00;61487.56;4931362;29;20066;-82
2023/04/20 03:47:34;;;;;;;8.45;3.65;;;;;;;-144.87;100.00;61487.56;4931096;29;20051;-82
2023/04/20 03:50:00;;;;;;;14.38;4.72;;;;;;;-144.87;100.00;61487.56;4933367;29;20027;-81
2023/04/20 03:52:26;;;;;;;6.47;3.78;;;;;;;-144.87;100.00;61487.56;4929904;29;20039;-82
2023/04/20 03:54:53;;;;;;;9.50;4.38;;;;;;;-144.87;100.00;61487.56;4932957;28;20042;-81
2023/04/20 03:57:19;;;;;;;6.85;4.20;;;;;;;-144.87;100.00;61487.56;4928364;29;20083;-81
2023/04/20 03:59:46;;;;;;;5.13;3.35;;;;;;;-144.87;100.00;61487.56;4916822;28;20047;-82
2023/04/20 04:02:17;;;;;;;9.27;3.90;;;;;;;-144.87;100.00;61487.56;4915752;28;20186;-83
2023/04/20 04:04:45;;;;;;;16.10;4.70;;;;;;;-144.87;100.00;61487.56;4930816;28;20043;-81
2023/04/20 04:07:11;;;;;;;9.27;4.10;;;;;;;-144.87;100.00;61487.56;4931000;28;20031;-81
2023/04/20 04:09:40;;;;;;;12.95;4.43;;;;;;;-144.87;100.00;61487.56;4918946;28;20054;-84
2023/04/20 04:12:07;;;;;;;8.75;4.50;;;;;;;-144.87;100.00;61487.56;4934581;28;20031;-82
2023/04/20 04:14:34;;;;;;;7.78;4.00;;;;;;;-144.87;100.00;61487.56;4934677;28;20053;-81
2023/04/20 04:17:01;;;;;;;17.63;4.15;;;;;;;-144.87;100.00;61487.56;4921723;28;20125;-82
2023/04/20 04:19:29;;;;;;;9.43;4.43;;;;;;;-144.87;100.00;61487.56;4918944;28;20042;-82
2023/04/20 04:21:55;;;;;;;11.00;4.53;;;;;;;-144.87;100.00;61487.56;4918838;28;20437;-81
2023/04/20 04:24:22;;;;;;;11.13;4.63;;;;;;;-144.87;100.00;61487.56;4916832;28;20038;-81
2023/04/20 04:27:05;;;;;;;10.65;3.95;;;;;;;-144.87;100.00;61487.56;4903903;28;20054;-85
2023/04/20 04:29:37;;;;;;;7.45;3.78;;;;;;;-144.87;100.00;61487.56;4907031;28;20465;-81
2023/04/20 04:32:06;;;;;;;8.93;4.22;;;;;;;-144.87;100.00;61487.56;4935051;28;20423;-82
2023/04/20 04:34:33;;;;;;;11.63;4.18;;;;;;;-144.87;100.00;61487.56;4927303;28;20034;-82
2023/04/20 04:37:01;;;;;;;9.07;3.97;;;;;;;-144.87;100.00;61487.56;4954092;28;20129;-83
2023/04/20 04:39:38;;;;;;;10.25;3.70;;;;;;;-144.87;100.00;61487.56;4917622;28;20051;-81
2023/04/20 04:42:35;;;;;;;8.70;3.70;;;;;;;-144.87;100.00;61487.56;4935494;28;20098;-81
2023/04/20 04:45:06;;;;;;;8.30;4.18;;;;;;;-144.87;100.00;61487.56;4903895;28;20130;-83
2023/04/20 04:47:35;;;;;;;8.13;3.33;;;;;;;-144.87;100.00;61487.56;4936337;29;20035;-81
2023/04/20 04:50:03;;;;;;;7.60;3.40;;;;;;;-144.87;100.00;61487.56;4932829;28;21006;-83
2023/04/20 04:52:30;;;;;;;6.43;3.47;;;;;;;-144.87;100.00;61487.56;4917899;28;20317;-81
2023/04/20 04:54:56;;;;;;;15.38;4.43;;;;;;;-144.87;100.00;61487.56;4915856;28;20039;-81
2023/04/20 04:57:22;;;;;;;12.40;3.63;;;;;;;-144.87;100.00;61487.56;4917506;28;20070;-81
2023/04/20 04:59:49;;;;;;;9.55;3.75;;;;;;;-144.87;100.00;61487.56;4925782;29;20038;-81
2023/04/20 05:02:15;;;;;;;5.90;3.30;;;;;;;-144.87;100.00;61487.56;4930780;28;20089;-80
2023/04/20 05:04:41;;;;;;;10.68;3.80;;;;;;;-144.87;100.00;61487.56;4947592;28;20452;-83
2023/04/20 05:07:12;;;;;;;8.35;3.35;;;;;;;-144.87;100.00;61487.56;4951072;28;20031;-82
2023/04/20 05:09:39;;;;;;;;;;;;;;;-144.87;100.00;61487.56;4929689;28;20225;-82
2023/04/20 05:12:06;;;;;;;12.95;4.13;;;;;;;-144.87;100.00;61487.56;4930674;28;19914;-84
2023/04/20 05:14:33;;;;;;;13.25;3.35;;;;;;;-144.87;100.00;61487.56;4951084;28;20134;-82
2023/04/20 05:16:59;;;;;;;7.07;3.00;;;;;;;-144.87;100.00;61487.56;4953947;28;20146;-82
2023/04/20 05:19:26;;;;;;;10.32;3.30;;;;;;;-144.87;100.00;61487.56;4940325;28;20031;-82
2023/04/20 05:21:52;;;;;;;5.50;3.03;;;;;;;-144.87;100.00;61487.56;4899076;29;20190;-82
2023/04/20 05:24:18;;;;;;;8.38;3.45;;;;;;;-144.87;100.00;61487.56;4956035;29;20042;-81
2023/04/20 05:26:45;;;;;;;11.82;3.40;;;;;;;-144.87;100.00;61487.56;4926170;29;20047;-84
2023/04/20 05:29:12;;;;;;;6.65;3.10;;;;;;;-144.87;100.00;61487.56;4935872;29;20041;-83
2023/04/20 05:31:38;;;;;;;10.20;3.45;;;;;;;-144.87;100.00;61487.56;4920006;29;20046;-83
2023/04/20 05:34:04;;;;;;;7.15;3.38;;;;;;;-144.87;100.00;61487.56;4932295;29;20074;-84
2023/04/20 05:36:32;;;;;;;7.63;3.45;;;;;;;-144.87;100.00;61487.56;4932583;29;20035;-81
2023/04/20 05:38:59;;;;;;;11.52;3.92;;;;;;;-144.87;100.00;61487.56;4935393;28;20055;-82
2023/04/20 05:41:28;;;;;;;8.13;3.83;;;;;;;-144.87;100.00;61487.56;4950238;28;20035;-82
2023/04/20 05:43:55;;;;;;;9.23;3.50;;;;;;;-144.87;100.00;61487.56;4962360;28;20043;-83
2023/04/20 05:46:21;;;;;;;8.95;3.40;;;;;;;-144.87;100.00;61487.56;4942301;29;20125;-82
2023/04/20 05:48:48;;;;;;;9.85;3.53;;;;;;;-144.87;100.00;61487.56;4925067;29;20421;-81
2023/04/20 05:51:14;;;;;;;10.05;3.88;;;;;;;-144.87;100.00;61487.56;4947798;29;20111;-81
2023/04/20 05:53:40;;;;;;;8.25;4.22;;;;;;;-144.87;100.00;61487.56;4927400;29;20423;-81
2023/04/20 05:56:07;;;;;;;7.53;3.53;;;;;;;-144.87;100.00;61487.56;4918538;29;20405;-81
2023/04/20 05:58:36;;;;;;;13.25;4.05;;;;;;;-144.87;100.00;61487.56;4950656;29;20474;-82
2023/04/20 06:01:03;;;;;;;11.15;4.18;;;;;;;-144.87;100.00;61487.56;4931019;29;20398;-83
2023/04/20 06:03:29;;;;;;;9.23;3.72;;;;;;;-144.87;100.00;61487.56;4935876;29;20509;-81
2023/04/20 06:05:56;;;;;;;9.52;3.28;;;;;;;-144.87;100.00;61487.56;4946797;28;20047;-80
2023/04/20 06:08:22;;;;;;;7.18;3.60;;;;;;;-144.87;100.00;61487.56;4918748;29;20433;-80
2023/04/20 06:10:54;;;;;;;12.60;4.90;;;;;;;-144.87;100.00;61487.56;4933037;29;20046;-79
2023/04/20 06:13:20;;;;;;;14.93;4.25;;;;;;;-144.87;100.00;61487.56;4935871;28;20039;-80
2023/04/20 06:15:46;;;;;;;12.15;4.30;;;;;;;-144.87;100.00;61487.56;4935217;29;20126;-81
2023/04/20 06:18:12;;;;;;;8.32;3.63;;;;;;;-144.87;100.00;61487.56;4937607;29;20039;-81
2023/04/20 06:20:39;;;;;;;10.90;3.90;;;;;;;-144.87;100.00;61487.56;4918547;29;20039;-81
2023/04/20 06:23:05;;;;;;;7.00;3.60;;;;;;;-144.87;100.00;61487.56;4937019;29;20480;-81
2023/04/20 06:25:31;;;;;;;9.70;3.45;;;;;;;-144.87;100.00;61487.56;4937761;28;20547;-81
2023/04/20 06:27:58;;;;;;;12.50;4.40;;;;;;;-144.87;100.00;61487.56;4948719;29;20039;-81
2023/04/20 06:30:24;;;;;;;8.75;3.90;;;;;;;-144.87;100.00;61487.56;4912542;28;20039;-82
2023/04/20 06:32:50;;;;;;;12.18;4.72;;;;;;;-144.87;100.00;61487.56;4915489;29;20075;-82
2023/04/20 06:35:17;;;;;;;8.23;3.72;;;;;;;-144.87;100.00;61487.56;4922597;29;20035;-80
2023/04/20 06:37:43;;;;;;;10.32;3.90;;;;;;;-144.87;100.00;61487.56;4936158;29;20077;-79
2023/04/20 06:40:09;;;;;;;9.45;3.97;;;;;;;-144.87;100.00;61487.56;4935663;29;20039;-78
2023/04/20 06:42:36;;;;;;;9.32;4.32;;;;;;;-144.87;100.00;61487.56;4926649;29;20039;-81
2023/04/20 06:45:03;;;;;;;9.85;4.80;;;;;;;-144.87;100.00;61487.56;4917540;29;20043;-79
2023/04/20 06:47:32;;;;;;;8.90;4.60;;;;;;;-144.87;100.00;61487.56;4930343;29;20103;-79
2023/04/20 06:50:06;;;;;;;8.98;4.50;;;;;;;-144.87;100.00;61487.56;4920236;29;20489;-79
2023/04/20 06:52:32;;;;;;;11.68;5.43;;;;;;;-144.87;100.00;61487.56;4935064;29;20087;-80
2023/04/20 06:54:59;;;;;;;9.70;4.50;;;;;;;-144.87;100.00;61487.56;4917741;29;20077;-82
2023/04/20 06:57:26;;;;;;;14.00;5.05;;;;;;;-144.87;100.00;61487.56;4916809;29;20039;-80
2023/04/20 06:59:52;;;;;;;12.38;5.53;;;;;;;-144.87;100.00;61487.56;4932248;29;20031;-83
2023/04/20 07:02:18;;;;;;;12.02;6.10;;;;;;;-144.87;100.00;61487.56;4934436;29;20455;-81
2023/04/20 07:04:45;;;;;;;16.92;5.80;;;;;;;-144.87;100.00;61487.56;4935805;29;20429;-80
2023/04/20 07:07:11;;;;;;;8.35;5.15;;;;;;;-144.87;100.00;61487.56;4920920;29;20153;-80
2023/04/20 07:09:37;;;;;;;13.55;5.60;;;;;;;-144.87;100.00;61487.56;4936253;29;20040;-80
2023/04/20 07:12:04;;;;;;;13.63;5.63;;;;;;;-144.87;100.00;61487.56;4934950;29;20459;-82
2023/04/20 07:14:30;;;;;;;9.35;5.10;;;;;;;-144.87;100.00;61487.56;4918468;29;20055;-81
2023/04/20 07:16:56;;;;;;;9.88;5.65;;;;;;;-144.87;100.00;61487.56;4924451;29;20039;-81
2023/04/20 07:19:22;;;;;;;8.38;5.03;;;;;;;-144.87;100.00;61487.56;4953510;29;20444;-81
2023/04/20 07:21:48;;;;;;;11.80;5.18;;;;;;;-144.87;100.00;61487.56;4935438;28;20043;-80
2023/04/20 07:24:15;;;;;;;12.68;5.35;;;;;;;-144.87;100.00;61487.56;4950215;29;20929;-80
2023/04/20 07:26:41;;;;;;;13.55;6.00;;;;;;;-144.87;100.00;61487.56;4952549;29;20035;-80
2023/04/20 07:29:07;;;;;;;10.32;5.78;;;;;;;-144.87;100.00;61487.56;4919419;29;20067;-81
2023/04/20 07:31:34;;;;;;;11.52;6.13;;;;;;;-144.87;100.00;61487.56;4919523;29;20035;-81
2023/04/20 07:34:00;;;;;;;10.40;5.43;;;;;;;-144.87;100.00;61487.56;4952033;29;20126;-82
2023/04/20 07:36:27;;;;;;;15.75;7.25;;;;;;;-144.87;100.00;61487.56;4915721;29;20095;-81
2023/04/20 07:38:53;;;;;;;12.88;6.38;;;;;;;-144.87;100.00;61487.56;4939286;29;20043;-81
2023/04/20 07:41:21;;;;;;;12.02;6.18;;;;;;;-144.87;100.00;61487.56;4932663;29;20136;-81
2023/04/20 07:43:48;;;;;;;11.38;6.38;;;;;;;-144.87;100.00;61487.56;4948158;28;20066;-81
2023/04/20 07:46:21;;;;;;;8.98;6.43;;;;;;;-144.87;100.00;61487.56;4938638;29;20031;-81
2023/04/20 07:48:48;;;;;;;12.95;7.03;;;;;;;-144.87;100.00;61487.56;4938517;29;20437;-81
2023/04/20 07:51:14;;;;;;;13.35;7.22;;;;;;;-144.87;100.00;61487.56;4937890;28;20043;-82
2023/04/20 07:53:41;;;;;;;17.55;7.32;;;;;;;-144.87;100.00;61487.56;4936955;29;20090;-81
2023/04/20 07:56:08;;;;;;;10.23;6.15;;;;;;;-144.87;100.00;61487.56;4934510;29;20067;-82
2023/04/20 07:58:37;;;;;;;14.40;7.72;;;;;;;-144.87;100.00;61487.56;4922109;29;20039;-80
2023/04/20 08:01:03;;;;;;;12.40;6.55;;;;;;;-144.87;100.00;61487.56;4938678;29;20065;-79
2023/04/20 08:03:30;;;;;;;11.02;6.55;;;;;;;-144.87;100.00;61487.56;4939178;28;20062;-80
2023/04/20 08:05:56;;;;;;;10.98;6.68;;;;;;;-144.87;100.00;61487.56;4920086;29;20067;-80
2023/04/20 08:08:22;;;;;;;16.10;7.07;;;;;;;-144.87;100.00;61487.56;4922275;29;20059;-80
2023/04/20 08:10:48;;;;;;;14.45;6.68;;;;;;;-144.87;100.00;61487.56;4921137;29;20504;-82
2023/04/20 08:13:15;;;;;;;12.95;6.75;;;;;;;-144.87;100.00;61487.56;4919328;29;20126;-82
2023/04/20 08:15:41;;;;;;;15.73;7.20;;;;;;;-144.87;100.00;61487.56;4949092;29;20031;-80
2023/04/20 08:18:08;;;;;;;16.73;7.57;;;;;;;-144.87;100.00;61487.56;4904261;29;20051;-80
2023/04/20 08:20:34;;;;;;;14.65;7.38;;;;;;;-144.87;100.00;61487.56;4937509;29;20043;-81
2023/04/20 08:23:00;;;;;;;13.77;6.45;;;;;;;-144.87;100.00;61487.56;4953116;28;20035;-81
2023/04/20 08:25:26;;;;;;;9.73;5.53;;;;;;;-144.87;100.00;61487.56;4921818;29;20047;-80
2023/04/20 08:27:52;;;;;;;10.52;6.18;;;;;;;-144.87;100.00;61487.56;4918907;29;20047;-81
2023/04/20 08:30:19;;;;;;;11.88;6.38;;;;;;;-144.87;100.00;61487.56;4934734;29;20039;-82
2023/04/20 08:32:45;;;;;;;13.20;5.82;;;;;;;-144.87;100.00;61487.56;4938000;29;20039;-81
2023/04/20 08:35:12;;;;;;;9.43;6.40;;;;;;;-144.87;100.00;61487.56;4936288;29;20035;-80
2023/04/20 08:37:38;;;;;;;9.20;5.95;;;;;;;-144.87;100.00;61487.56;4937012;29;20130;-80
2023/04/20 08:40:05;;;;;;;13.10;6.28;;;;;;;-144.87;100.00;61487.56;4918092;29;20413;-80
2023/04/20 08:42:31;;;;;;;10.05;5.90;;;;;;;-144.87;100.00;61487.56;4919435;29;20050;-80
2023/04/20 08:44:58;;;;;;;11.65;5.95;;;;;;;-144.87;100.00;61487.56;4937603;29;20038;-81
2023/04/20 08:47:26;;;;;;;13.70;6.05;;;;;;;-144.87;100.00;61487.56;4945446;29;20483;-81
2023/04/20 08:49:56;;;;;;;11.25;6.35;;;;;;;-144.87;100.00;61487.56;4935963;29;20507;-82
2023/04/20 08:52:23;;;;;;;10.10;6.10;;;;;;;-144.87;100.00;61487.56;4922259;29;20047;-80
2023/04/20 08:54:49;;;;;;;14.70;6.63;;;;;;;-144.87;100.00;61487.56;4934805;29;20094;-80
2023/04/20 08:57:15;;;;;;;13.40;6.30;;;;;;;-144.87;100.00;61487.56;4920311;29;20039;-81
2023/04/20 08:59:41;;;;;;;10.82;6.05;;;;;;;-144.87;100.00;61487.56;4904505;29;20089;-83
2023/04/20 09:02:10;;;;;;;19.80;9.38;;;;;;;-144.87;100.00;61487.56;4936320;29;20050;-82
2023/04/20 09:04:36;;;;;;;17.15;8.05;;;;;;;-144.87;100.00;61487.56;4934439;29;20125;-81
2023/04/20 09:07:02;;;;;;;11.90;6.90;;;;;;;-144.87;100.00;61487.56;4926981;29;20043;-79
2023/04/20 09:09:29;;;;;;;9.48;6.22;;;;;;;-144.87;100.00;61487.56;4920822;29;20075;-80
2023/04/20 09:12:03;;;;;;;12.43;7.18;;;;;;;-144.87;100.00;61487.56;4954307;29;20031;-80
2023/04/20 09:14:30;;;;;;;9.93;6.50;;;;;;;-144.87;100.00;61487.56;4935770;29;20091;-82
2023/04/20 09:17:03;;;;;;;14.20;7.03;;;;;;;-144.87;100.00;61487.56;4917244;29;20381;-80
2023/04/20 09:19:30;;;;;;;11.98;7.00;;;;;;;-144.87;100.00;61487.56;4932633;29;20043;-82
2023/04/20 09:22:02;;;;;;;10.23;6.55;;;;;;;-144.87;100.00;61487.56;4931992;29;20503;-80
2023/04/20 09:24:33;;;;;;;14.55;7.43;;;;;;;-144.87;100.00;61487.56;4926682;29;20039;-80
2023/04/20 09:27:01;;;;;;;10.13;6.85;;;;;;;-144.87;100.00;61487.56;4916986;29;20405;-80
2023/04/20 09:29:29;;;;;;;10.07;6.38;;;;;;;-144.87;100.00;61487.56;4945571;28;20035;-80
2023/04/20 09:31:55;;;;;;;13.13;7.00;;;;;;;-144.87;100.00;61487.56;4935055;29;20042;-81
2023/04/20 09:34:22;;;;;;;12.68;7.05;;;;;;;-144.87;100.00;61487.56;4954182;29;20066;-82
2023/04/20 09:36:50;;;;;;;10.52;6.00;;;;;;;-144.87;100.00;61487.56;4931693;29;20054;-80
2023/04/20 09:39:18;;;;;;;9.75;5.95;;;;;;;-144.87;100.00;61487.56;4920422;29;20035;-81
2023/04/20 09:41:45;;;;;;;8.18;6.45;;;;;;;-144.87;100.00;61487.56;4919119;29;20048;-80
2023/04/20 09:44:15;;;;;;;12.07;6.18;;;;;;;-144.87;100.00;61487.56;4923972;29;20043;-81
2023/04/20 09:46:42;;;;;;;8.93;5.85;;;;;;;-144.87;100.00;61487.56;4937848;29;20122;-80
2023/04/20 09:49:10;;;;;;;8.23;5.85;;;;;;;-144.87;100.00;61487.56;4924010;29;20090;-80
2023/04/20 09:51:43;;;;;;;9.68;6.15;;;;;;;-144.87;100.00;61487.56;4957324;29;20036;-79
2023/04/20 09:54:10;;;;;;;9.00;6.00;;;;;;;-144.87;100.00;61487.56;4917493;28;20037;-81
2023/04/20 09:56:38;;;;;;;15.43;7.07;;;;;;;-144.87;100.00;61487.56;4958202;28;20091;-80
2023/04/20 09:59:05;;;;;;;9.95;6.97;;;;;;;-144.87;100.00;61487.56;4921846;29;20035;-81
2023/04/20 10:01:33;;;;;;;9.88;6.43;;;;;;;-144.87;100.00;61487.56;4945787;28;20107;-81
2023/04/20 10:04:01;;;;;;;12.57;7.65;;;;;;;-144.87;100.00;61487.56;4949213;28;20044;-81
2023/04/20 10:06:29;;;;;;;13.57;6.85;;;;;;;-144.87;100.00;61487.56;4934141;28;20098;-81
2023/04/20 10:08:56;;;;;;;10.15;7.13;;;;;;;-144.87;100.00;61487.56;4936538;29;20059;-81
2023/04/20 10:11:39;;;;;;;14.05;7.18;;;;;;;-144.87;100.00;61487.56;4950441;28;20118;-81
2023/04/20 10:14:34;;;;;;;13.10;7.95;;;;;;;-144.87;100.00;61487.56;4954852;28;20047;-80
2023/04/20 10:17:00;;;;;;;15.10;9.50;;;;;;;-144.87;100.00;61487.56;4918187;28;20073;-80
2023/04/20 10:19:56;;;;;;;12.48;8.60;;;;;;;-144.87;100.00;61487.56;4931506;29;20437;-80
2023/04/20 10:22:32;;;;;;;13.20;9.40;;;;;;;-144.87;100.00;61487.56;4908643;29;20047;-81
2023/04/20 10:25:13;;;;;;;13.57;7.32;;;;;;;-144.87;100.00;61487.56;4948841;29;20033;-80
2023/04/20 10:27:40;;;;;;;17.10;10.50;;;;;;;-144.87;100.00;61487.56;4928881;29;20047;-80
2023/04/20 10:30:11;;;;;;;18.30;11.70;;;;;;;-144.87;100.00;61487.56;4917295;29;20050;-80
2023/04/20 10:32:38;;;;;;;14.98;9.95;;;;;;;-144.87;100.00;61487.56;4951145;29;20059;-80
2023/04/20 10:35:07;;;;;;;10.88;7.38;;;;;;;-144.87;100.00;61487.56;4939055;29;20122;-80
2023/04/20 10:37:34;;;;;;;14.13;8.13;;;;;;;-144.87;100.00;61487.56;4936879;29;20285;-80
2023/04/20 10:40:00;;;;;;;12.68;8.43;;;;;;;-144.87;100.00;61487.56;4917754;28;20051;-80
2023/04/20 10:42:28;;;;;;;19.90;11.32;;;;;;;-144.87;100.00;61487.56;4919169;29;20039;-80
2023/04/20 10:44:54;;;;;;;20.48;12.50;;;;;;;-144.87;100.00;61487.56;4909452;29;20489;-80
2023/04/20 10:47:28;;;;;;;20.42;11.95;;;;;;;-144.87;100.00;61487.56;4916127;29;20031;-80
2023/04/20 10:50:05;;;;;;;23.58;11.90;;;;;;;-144.87;100.00;61487.56;4926606;29;20044;-79
2023/04/20 10:52:33;;;;;;;25.60;14.73;;;;;;;-144.87;100.00;61487.56;4952425;29;20053;-80
2023/04/20 10:55:00;;;;;;;18.80;11.20;;;;;;;-144.87;100.00;61487.56;4934294;29;20707;-80
2023/04/20 10:57:26;;;;;;;12.02;8.13;;;;;;;-144.87;100.00;61487.56;4935819;29;20127;-80
2023/04/20 10:59:52;;;;;;;16.48;8.95;;;;;;;-144.87;100.00;61487.56;4935244;29;20067;-80
2023/04/20 11:02:19;;;;;;;18.20;10.07;;;;;;;-144.87;100.00;61487.56;4951626;29;20043;-80
2023/04/20 11:04:45;;;;;;;18.08;9.23;;;;;;;-144.87;100.00;61487.56;4935620;29;20120;-81
2023/04/20 11:07:14;;;;;;;17.35;10.88;;;;;;;-144.87;100.00;61487.56;4919929;29;20035;-80